Terminal Aerodrome Forecast
Issued by NWS

Home | Current Version | Previous Version | Text Only | Print | Product List | Glossary Off
Versions: 1 2 3 4 5 6 7 8 9 10 11 12 13 14 15 16

000
FTUS45 KGGW 181720
TAFGDV
TAF
KGDV 181720Z 1818/1918 09008KT P6SM FEW070
     FM190600 13007KT P6SM FEW110
     FM191100 VRB05KT P6SM VCSH BKN100
     FM191300 14007KT 6SM SHRA BKN050 OVC100
     FM191600 07007KT P6SM SCT050=

USA.gov is the U.S. government's official web portal to all federal, state and local government web resources and services.